Time;durP1;ratioP1;P1;durP2;ratioP2;P2;SDS_P1;SDS_P2;PMS_P1;PMS_P2;Temp;Humidity;BMP_temperature;BMP_pressure;BME280_temperature;BME280_humidity;BME280_pressure;Samples;Min_cycle;Max_cycle;Signal;HPM_P1;HPM_P2
2022/02/24 00:00:20;;;;;;;2.88;2.00;;;4.10;99.90;;;;;;5049825;28;20209;-76
2022/02/24 00:03:30;;;;;;;2.55;2.30;;;4.10;99.90;;;;;;5117842;22;20250;-94
2022/02/24 00:06:05;;;;;;;2.65;2.30;;;4.10;99.90;;;;;;5045177;28;20216;-93
2022/02/24 00:08:33;;;;;;;2.80;2.20;;;4.10;99.90;;;;;;5049470;28;20286;-93
2022/02/24 00:11:09;;;;;;;2.25;2.05;;;4.10;99.90;;;;;;5103764;28;20184;-94
2022/02/24 00:13:38;;;;;;;3.53;3.03;;;4.10;99.90;;;;;;5097013;28;20219;-94
2022/02/24 00:16:06;;;;;;;2.60;2.22;;;4.10;99.90;;;;;;5095282;28;20203;-92
2022/02/24 00:19:01;;;;;;;2.97;2.67;;;4.20;99.90;;;;;;5095469;28;20206;-92
2022/02/24 00:24:21;;;;;;;2.95;2.55;;;4.30;99.90;;;;;;5089370;28;20259;-78
2022/02/24 00:26:49;;;;;;;5.75;2.67;;;4.40;99.90;;;;;;5091942;28;20554;-78
2022/02/24 00:29:17;;;;;;;3.20;2.83;;;4.50;99.90;;;;;;5090933;28;20206;-78
2022/02/24 00:31:44;;;;;;;2.92;2.67;;;4.60;99.90;;;;;;5091120;28;20195;-79
2022/02/24 00:34:10;;;;;;;3.03;2.58;;;4.60;99.90;;;;;;5089923;28;20206;-78
2022/02/24 00:36:37;;;;;;;2.50;2.20;;;4.70;99.90;;;;;;5092897;28;20550;-79
2022/02/24 00:39:05;;;;;;;2.95;2.30;;;4.70;99.90;;;;;;5091291;28;20227;-79
2022/02/24 00:41:32;;;;;;;3.25;2.25;;;4.80;99.90;;;;;;5091383;28;20223;-79
2022/02/24 00:44:00;;;;;;;3.95;2.80;;;4.80;99.90;;;;;;5089589;28;20574;-78
2022/02/24 00:46:27;;;;;;;5.03;2.60;;;4.90;99.90;;;;;;5091574;28;20206;-79
2022/02/24 00:48:54;;;;;;;4.03;2.70;;;5.00;99.90;;;;;;5090708;28;20325;-78
2022/02/24 00:51:20;;;;;;;3.25;2.47;;;5.00;99.90;;;;;;5091529;28;20222;-78
2022/02/24 00:53:47;;;;;;;3.78;2.67;;;5.00;99.90;;;;;;5090733;28;20195;-78
2022/02/24 00:56:14;;;;;;;4.50;2.85;;;5.10;99.90;;;;;;5094024;28;20223;-79
2022/02/24 00:58:41;;;;;;;3.03;2.42;;;5.10;99.90;;;;;;5094853;28;20200;-79
2022/02/24 01:01:09;;;;;;;3.42;2.97;;;5.10;99.90;;;;;;5095007;28;20219;-78
2022/02/24 01:03:36;;;;;;;3.85;2.70;;;5.10;99.90;;;;;;5094709;28;20205;-78
2022/02/24 01:06:03;;;;;;;7.00;3.00;;;5.20;99.90;;;;;;5093992;28;20723;-79
2022/02/24 01:08:29;;;;;;;4.18;2.90;;;5.20;99.90;;;;;;5094098;28;20636;-78
2022/02/24 01:10:56;;;;;;;4.80;2.55;;;5.20;99.90;;;;;;5094950;28;20199;-79
2022/02/24 01:13:23;;;;;;;5.60;3.08;;;5.20;99.90;;;;;;5094149;28;20226;-79
2022/02/24 01:15:50;;;;;;;3.40;3.00;;;5.20;99.90;;;;;;5095116;28;20224;-79
2022/02/24 01:18:18;;;;;;;4.28;3.00;;;5.10;99.90;;;;;;5095249;28;20667;-79
2022/02/24 01:20:45;;;;;;;3.28;2.67;;;5.10;99.90;;;;;;5093284;28;20237;-79
2022/02/24 01:23:12;;;;;;;3.03;2.65;;;5.10;99.90;;;;;;5094016;28;20222;-79
2022/02/24 01:25:39;;;;;;;3.30;3.00;;;5.10;99.90;;;;;;5096882;28;20566;-78
2022/02/24 01:28:05;;;;;;;6.20;3.33;;;5.20;99.90;;;;;;5094227;28;20199;-79
2022/02/24 01:30:33;;;;;;;3.33;2.67;;;5.20;99.90;;;;;;5095545;28;20207;-79
2022/02/24 01:33:00;;;;;;;3.28;2.70;;;5.20;99.90;;;;;;5093393;28;20530;-78
2022/02/24 01:35:28;;;;;;;4.60;3.00;;;5.20;99.90;;;;;;5095911;28;20220;-78
2022/02/24 01:37:55;;;;;;;3.35;2.85;;;5.10;99.90;;;;;;5099495;28;20208;-79
2022/02/24 01:40:22;;;;;;;2.60;2.40;;;5.10;99.90;;;;;;5099648;28;20210;-78
2022/02/24 01:42:48;;;;;;;4.75;2.95;;;5.00;99.90;;;;;;5100338;28;20223;-78
2022/02/24 01:45:15;;;;;;;2.55;2.25;;;5.00;99.90;;;;;;5099743;28;20228;-78
2022/02/24 01:47:42;;;;;;;3.78;2.85;;;5.00;99.90;;;;;;5101957;28;20200;-78
2022/02/24 01:50:12;;;;;;;4.95;2.58;;;5.00;99.90;;;;;;5100968;28;20206;-79
2022/02/24 01:52:40;;;;;;;3.13;2.83;;;5.00;99.90;;;;;;5099352;28;20196;-78
2022/02/24 01:55:09;;;;;;;4.97;3.03;;;5.00;99.90;;;;;;5095526;28;20713;-79
2022/02/24 01:57:36;;;;;;;3.05;2.65;;;5.00;99.90;;;;;;5093471;28;20208;-78
2022/02/24 02:00:04;;;;;;;3.60;3.10;;;5.00;99.90;;;;;;5094005;28;20215;-78
2022/02/24 02:02:31;;;;;;;4.38;2.80;;;5.00;99.90;;;;;;5093361;28;20249;-78
2022/02/24 02:04:58;;;;;;;3.50;3.00;;;5.00;99.90;;;;;;5092595;28;20216;-78
2022/02/24 02:07:25;;;;;;;2.65;2.45;;;5.00;99.90;;;;;;5092402;28;20200;-78
2022/02/24 02:09:54;;;;;;;3.10;2.80;;;5.00;99.90;;;;;;5092922;28;20210;-78
2022/02/24 02:12:21;;;;;;;4.28;2.72;;;5.00;99.90;;;;;;5092819;28;20196;-78
2022/02/24 02:14:48;;;;;;;4.65;2.60;;;5.00;99.90;;;;;;5092177;28;20223;-78
2022/02/24 02:17:14;;;;;;;4.30;2.95;;;5.00;99.90;;;;;;5092206;28;20294;-78
2022/02/24 02:19:41;;;;;;;3.50;2.80;;;5.00;99.90;;;;;;5092429;28;20789;-78
2022/02/24 02:22:09;;;;;;;4.95;2.22;;;4.90;99.90;;;;;;5093663;28;20223;-78
2022/02/24 02:24:36;;;;;;;3.08;2.60;;;4.90;99.90;;;;;;5093015;28;20255;-78
2022/02/24 02:27:03;;;;;;;2.88;2.67;;;4.80;99.90;;;;;;5094138;28;20206;-78
2022/02/24 02:29:30;;;;;;;2.45;2.25;;;4.90;99.90;;;;;;5093756;28;20207;-78
2022/02/24 02:31:56;;;;;;;4.65;2.70;;;4.80;99.90;;;;;;5093785;28;20207;-77
2022/02/24 02:34:23;;;;;;;3.28;2.70;;;4.80;99.90;;;;;;5092670;28;20590;-78
2022/02/24 02:36:50;;;;;;;3.97;3.00;;;4.80;99.90;;;;;;5094184;28;20291;-78
2022/02/24 02:39:18;;;;;;;3.00;2.70;;;4.80;99.90;;;;;;5093704;28;20215;-78
2022/02/24 02:41:47;;;;;;;4.10;2.50;;;4.80;99.90;;;;;;5094303;28;20223;-78
2022/02/24 02:44:15;;;;;;;3.15;2.53;;;4.70;99.90;;;;;;5092816;28;20207;-78
2022/02/24 02:46:42;;;;;;;5.57;2.75;;;4.80;99.90;;;;;;5102383;28;20855;-78
2022/02/24 02:49:08;;;;;;;4.22;2.63;;;4.80;99.90;;;;;;5108495;28;20196;-79
2022/02/24 02:51:35;;;;;;;4.88;3.70;;;4.80;99.90;;;;;;5108599;28;20195;-78
2022/02/24 02:54:02;;;;;;;3.00;2.70;;;4.80;99.90;;;;;;5103507;28;20203;-78
2022/02/24 02:56:30;;;;;;;2.70;2.50;;;4.90;99.90;;;;;;5106034;28;20200;-78
2022/02/24 02:58:57;;;;;;;3.63;2.92;;;4.90;99.90;;;;;;5106008;28;20204;-78
2022/02/24 03:01:24;;;;;;;4.88;2.75;;;4.90;99.90;;;;;;5105439;28;20219;-78
2022/02/24 03:03:51;;;;;;;4.60;4.22;;;4.80;99.90;;;;;;5094249;28;20199;-78
2022/02/24 03:06:17;;;;;;;3.45;3.10;;;4.90;99.90;;;;;;5094783;28;20227;-78
2022/02/24 03:08:45;;;;;;;5.38;2.85;;;4.90;99.90;;;;;;5094834;28;20580;-78
2022/02/24 03:11:11;;;;;;;4.05;3.00;;;4.90;99.90;;;;;;5095281;28;20671;-78
2022/02/24 03:13:39;;;;;;;3.00;2.63;;;4.90;99.90;;;;;;5093788;28;20199;-78
2022/02/24 03:16:06;;;;;;;6.15;4.45;;;5.00;99.90;;;;;;5094345;28;20227;-78
2022/02/24 03:18:33;;;;;;;2.42;2.22;;;5.00;99.90;;;;;;5092922;28;20207;-77
2022/02/24 03:21:00;;;;;;;4.35;3.95;;;5.00;99.90;;;;;;5092856;28;20279;-77
2022/02/24 03:23:26;;;;;;;4.97;2.60;;;5.00;99.90;;;;;;5092417;28;20227;-77
2022/02/24 03:25:53;;;;;;;3.22;2.60;;;5.10;99.90;;;;;;5094006;28;20219;-77
2022/02/24 03:28:20;;;;;;;3.15;2.60;;;5.10;99.90;;;;;;5096469;28;20203;-78
2022/02/24 03:30:48;;;;;;;2.75;2.53;;;5.10;99.90;;;;;;5097378;28;20214;-77
2022/02/24 03:33:16;;;;;;;3.80;3.10;;;5.10;99.90;;;;;;5096823;28;20273;-78
2022/02/24 03:35:44;;;;;;;2.50;2.30;;;5.10;99.90;;;;;;5097492;28;20230;-77
2022/02/24 03:38:11;;;;;;;3.08;2.78;;;5.20;99.90;;;;;;5097903;28;20573;-78
2022/02/24 03:40:38;;;;;;;3.42;2.10;;;5.20;99.90;;;;;;5091098;28;20204;-77
2022/02/24 03:43:04;;;;;;;2.97;2.70;;;5.20;99.90;;;;;;5095224;28;20219;-78
2022/02/24 03:45:31;;;;;;;3.60;2.50;;;5.20;99.90;;;;;;5097064;28;20219;-78
2022/02/24 03:47:59;;;;;;;2.60;2.30;;;5.20;99.90;;;;;;5096946;28;20659;-78
2022/02/24 03:50:26;;;;;;;2.80;2.35;;;5.20;99.90;;;;;;5094791;28;20203;-78
2022/02/24 03:52:53;;;;;;;3.28;2.92;;;5.10;99.90;;;;;;5095273;28;20290;-78
2022/02/24 03:55:20;;;;;;;5.90;3.92;;;5.00;99.90;;;;;;5095429;28;20220;-78
2022/02/24 03:57:47;;;;;;;3.95;2.53;;;4.90;99.90;;;;;;5095475;28;20218;-78
2022/02/24 04:00:14;;;;;;;2.28;1.90;;;4.90;99.90;;;;;;5094688;28;20199;-78
2022/02/24 04:02:41;;;;;;;3.25;2.75;;;4.80;99.90;;;;;;5093355;28;20216;-78
2022/02/24 04:05:11;;;;;;;3.45;2.42;;;4.80;99.90;;;;;;5092478;28;20376;-77
2022/02/24 04:07:37;;;;;;;3.20;2.90;;;4.80;99.90;;;;;;5092847;28;20294;-78
2022/02/24 04:10:05;;;;;;;2.95;2.65;;;4.80;99.90;;;;;;5091994;28;20210;-78
2022/02/24 04:12:31;;;;;;;3.40;2.80;;;4.80;99.90;;;;;;5091475;28;20203;-78
2022/02/24 04:14:58;;;;;;;2.90;2.60;;;4.80;99.90;;;;;;5091885;28;20310;-78
2022/02/24 04:17:25;;;;;;;3.22;2.30;;;4.70;99.90;;;;;;5092260;28;20203;-78
2022/02/24 04:19:52;;;;;;;4.18;2.60;;;4.70;99.90;;;;;;5091324;28;20231;-77
2022/02/24 04:22:20;;;;;;;4.68;2.42;;;4.70;99.90;;;;;;5091993;28;20222;-78
2022/02/24 04:24:46;;;;;;;2.63;2.22;;;4.70;99.90;;;;;;5091770;28;20230;-77
2022/02/24 04:27:13;;;;;;;5.45;3.00;;;4.70;99.90;;;;;;5092883;28;20204;-78
2022/02/24 04:29:40;;;;;;;3.92;2.45;;;4.80;99.90;;;;;;5092573;28;20207;-79
2022/02/24 04:32:08;;;;;;;3.20;2.40;;;4.80;99.90;;;;;;5095795;28;20200;-78
2022/02/24 04:34:34;;;;;;;3.22;2.90;;;4.80;99.90;;;;;;5092682;28;20306;-78
2022/02/24 04:37:01;;;;;;;3.10;2.80;;;4.80;99.90;;;;;;5091172;28;20199;-77
2022/02/24 04:39:29;;;;;;;3.80;2.40;;;4.80;99.90;;;;;;5093527;28;20196;-79
2022/02/24 04:41:56;;;;;;;6.70;2.72;;;4.90;99.90;;;;;;5090277;28;20614;-78
2022/02/24 04:44:23;;;;;;;4.13;2.90;;;4.80;99.90;;;;;;5094838;28;20212;-78
2022/02/24 04:46:49;;;;;;;3.63;3.03;;;4.90;99.90;;;;;;5100119;28;20203;-78
2022/02/24 04:49:17;;;;;;;4.93;3.97;;;4.90;99.90;;;;;;5107346;28;20210;-78
2022/02/24 04:51:44;;;;;;;3.88;3.17;;;4.90;99.90;;;;;;5106544;28;20203;-78
2022/02/24 04:54:11;;;;;;;3.00;2.80;;;5.00;99.90;;;;;;5113249;28;20200;-79
2022/02/24 04:56:39;;;;;;;3.80;2.50;;;5.10;99.90;;;;;;5100401;28;20195;-80
2022/02/24 04:59:05;;;;;;;4.80;3.00;;;5.10;99.90;;;;;;5091461;28;20280;-80
2022/02/24 05:01:32;;;;;;;4.65;3.40;;;5.10;99.90;;;;;;5090995;28;20187;-77
2022/02/24 05:03:59;;;;;;;4.70;2.90;;;5.10;99.90;;;;;;5089204;28;20621;-81
2022/02/24 05:06:26;;;;;;;4.50;3.30;;;5.10;99.90;;;;;;5092380;28;20199;-78
2022/02/24 05:08:52;;;;;;;4.88;3.60;;;5.00;99.90;;;;;;5090039;28;20199;-79
2022/02/24 05:11:19;;;;;;;4.28;3.05;;;5.00;99.90;;;;;;5091475;28;20192;-77
2022/02/24 05:13:47;;;;;;;5.03;3.53;;;5.00;99.90;;;;;;5088617;28;20188;-78
2022/02/24 05:16:14;;;;;;;6.53;3.63;;;4.90;99.90;;;;;;5091482;28;20675;-77
2022/02/24 05:18:41;;;;;;;3.67;3.20;;;4.90;99.90;;;;;;5090518;28;20203;-77
2022/02/24 05:21:07;;;;;;;3.67;3.33;;;4.80;99.90;;;;;;5093486;28;20199;-78
2022/02/24 05:23:36;;;;;;;4.40;3.70;;;4.90;99.90;;;;;;5086741;28;20222;-77
2022/02/24 05:26:03;;;;;;;5.47;4.00;;;4.80;99.90;;;;;;5092306;28;20476;-76
2022/02/24 05:28:30;;;;;;;4.47;3.42;;;4.80;99.90;;;;;;5097427;28;20200;-75
2022/02/24 05:30:59;;;;;;;5.32;3.55;;;4.80;99.90;;;;;;5094704;28;20204;-76
2022/02/24 05:33:26;;;;;;;3.88;3.40;;;4.80;99.90;;;;;;5097381;28;20191;-79
2022/02/24 05:35:53;;;;;;;5.75;3.35;;;4.70;99.90;;;;;;5097619;28;20222;-77
2022/02/24 05:38:20;;;;;;;4.93;3.67;;;4.70;99.90;;;;;;5095095;28;20216;-76
2022/02/24 05:40:47;;;;;;;3.83;3.47;;;4.80;99.90;;;;;;5091867;28;20207;-76
2022/02/24 05:43:14;;;;;;;4.93;4.25;;;4.80;99.90;;;;;;5094963;28;20227;-77
2022/02/24 05:45:42;;;;;;;4.55;4.15;;;4.80;99.90;;;;;;5094713;28;20868;-77
2022/02/24 05:48:10;;;;;;;4.43;4.03;;;4.80;99.90;;;;;;5096725;28;20257;-77
2022/02/24 05:50:37;;;;;;;9.75;4.88;;;4.80;99.90;;;;;;5097036;28;20231;-77
2022/02/24 05:53:04;;;;;;;5.82;4.53;;;4.80;99.90;;;;;;5097220;28;20298;-77
2022/02/24 05:55:31;;;;;;;4.90;4.15;;;4.80;99.90;;;;;;5097013;28;20219;-77
2022/02/24 05:57:58;;;;;;;5.53;4.78;;;4.80;99.90;;;;;;5097337;28;20199;-77
2022/02/24 06:00:25;;;;;;;5.80;4.05;;;4.80;99.90;;;;;;5097676;28;20211;-77
2022/02/24 06:05:21;;;;;;;4.30;3.90;;;4.80;99.90;;;;;;5062716;28;20726;-78
2022/02/24 06:07:48;;;;;;;6.28;4.63;;;4.70;99.90;;;;;;5056837;28;20638;-77
2022/02/24 06:10:15;;;;;;;4.82;4.30;;;4.70;99.90;;;;;;5057253;28;20201;-77
2022/02/24 06:12:42;;;;;;;6.32;4.97;;;4.70;99.90;;;;;;5056662;28;20197;-77
2022/02/24 06:15:10;;;;;;;5.95;4.82;;;4.60;99.90;;;;;;5056213;28;20231;-77
2022/02/24 06:17:38;;;;;;;6.47;4.40;;;4.60;99.90;;;;;;5053163;28;20201;-76
2022/02/24 06:20:06;;;;;;;7.82;4.75;;;4.60;99.90;;;;;;5052701;28;20205;-76
2022/02/24 06:22:34;;;;;;;6.78;4.28;;;4.60;99.90;;;;;;5053798;28;20221;-76
2022/02/24 06:25:01;;;;;;;6.00;4.80;;;4.60;99.90;;;;;;5054116;28;20224;-77
2022/02/24 06:27:28;;;;;;;5.22;4.25;;;4.60;99.90;;;;;;5055066;28;20205;-77
2022/02/24 06:29:54;;;;;;;6.70;4.82;;;4.60;99.90;;;;;;5055346;28;20561;-77
2022/02/24 06:32:21;;;;;;;7.47;4.70;;;4.70;99.90;;;;;;5055725;28;20209;-77
2022/02/24 06:34:48;;;;;;;7.68;4.82;;;4.60;99.90;;;;;;5052415;28;20233;-77
2022/02/24 06:37:14;;;;;;;5.40;4.85;;;4.60;99.90;;;;;;5053613;28;20308;-77
2022/02/24 06:39:43;;;;;;;7.70;5.15;;;4.60;99.90;;;;;;5053427;28;20205;-77
2022/02/24 06:42:09;;;;;;;4.80;4.30;;;4.60;99.90;;;;;;5053724;28;20208;-77
2022/02/24 06:44:36;;;;;;;7.80;4.97;;;4.60;99.90;;;;;;5052991;28;20236;-77
2022/02/24 06:47:03;;;;;;;8.00;4.85;;;4.60;99.90;;;;;;5053366;28;20707;-77
2022/02/24 06:49:30;;;;;;;8.85;5.60;;;4.70;99.90;;;;;;5051660;28;20664;-76
2022/02/24 06:51:57;;;;;;;6.25;4.70;;;4.70;99.90;;;;;;5053036;28;20255;-76
2022/02/24 06:54:24;;;;;;;8.48;4.88;;;4.70;99.90;;;;;;5051706;28;20585;-76
2022/02/24 06:56:52;;;;;;;6.50;5.30;;;4.70;99.90;;;;;;5052242;28;20681;-77
2022/02/24 06:59:19;;;;;;;8.40;5.78;;;4.70;99.90;;;;;;5053890;28;20204;-76
2022/02/24 07:01:46;;;;;;;8.70;5.30;;;4.70;99.90;;;;;;5052985;28;20219;-76
2022/02/24 07:04:13;;;;;;;5.95;5.32;;;4.70;99.90;;;;;;5051433;28;20253;-76
2022/02/24 07:06:39;;;;;;;8.10;4.95;;;4.70;99.90;;;;;;5052642;28;20560;-76
2022/02/24 07:09:06;;;;;;;7.38;5.30;;;4.80;99.90;;;;;;5053870;28;20204;-76
2022/02/24 07:11:33;;;;;;;8.98;6.18;;;4.90;99.90;;;;;;5063517;28;20204;-75
2022/02/24 07:14:01;;;;;;;7.05;5.18;;;4.90;99.90;;;;;;5061767;28;20319;-76
2022/02/24 07:16:28;;;;;;;8.32;5.80;;;5.00;99.90;;;;;;5062777;28;20200;-76
2022/02/24 07:18:54;;;;;;;7.50;5.70;;;5.00;99.90;;;;;;5063602;28;20594;-76
2022/02/24 07:21:21;;;;;;;5.82;5.25;;;5.00;99.90;;;;;;5062761;28;20193;-76
2022/02/24 07:23:48;;;;;;;6.22;4.82;;;5.10;99.90;;;;;;5059669;28;20217;-76
2022/02/24 07:26:14;;;;;;;6.30;4.95;;;5.10;99.90;;;;;;5056477;28;20308;-76
2022/02/24 07:28:43;;;;;;;5.28;4.75;;;5.30;99.90;;;;;;5051846;28;20216;-76
2022/02/24 07:31:12;;;;;;;9.35;5.82;;;5.40;99.90;;;;;;5052940;28;20200;-77
2022/02/24 07:33:39;;;;;;;9.30;5.00;;;5.70;99.90;;;;;;5051370;28;20201;-77
2022/02/24 07:36:06;;;;;;;6.88;5.15;;;5.80;99.90;;;;;;5052684;28;20229;-77
2022/02/24 07:38:33;;;;;;;17.23;5.65;;;5.90;99.90;;;;;;5052485;28;20205;-76
2022/02/24 07:40:59;;;;;;;5.85;4.78;;;6.10;99.90;;;;;;5052872;28;20201;-76
2022/02/24 07:43:26;;;;;;;6.03;5.07;;;6.30;99.90;;;;;;5053725;28;20213;-77
2022/02/24 07:45:53;;;;;;;7.78;4.70;;;6.50;99.90;;;;;;5052081;28;20236;-77
2022/02/24 07:48:21;;;;;;;6.47;4.55;;;6.90;99.90;;;;;;5052339;28;20208;-76
2022/02/24 07:50:48;;;;;;;6.05;5.40;;;7.30;99.90;;;;;;5051309;28;20213;-77
2022/02/24 07:53:14;;;;;;;5.22;4.72;;;7.60;99.90;;;;;;5051459;28;20205;-77
2022/02/24 07:55:41;;;;;;;6.55;4.53;;;7.80;99.90;;;;;;5050998;28;20224;-77
2022/02/24 07:58:09;;;;;;;7.45;4.35;;;8.00;99.90;;;;;;5050536;28;20201;-77
2022/02/24 08:00:37;;;;;;;4.28;3.72;;;8.10;99.90;;;;;;5053905;28;20209;-77
2022/02/24 08:03:03;;;;;;;6.68;4.50;;;8.50;99.90;;;;;;5052212;28;20213;-78
2022/02/24 08:05:32;;;;;;;6.38;4.20;;;9.00;99.90;;;;;;5051184;28;20233;-78
2022/02/24 08:07:58;;;;;;;5.55;4.28;;;9.70;99.90;;;;;;5052606;28;20201;-77
2022/02/24 08:10:25;;;;;;;5.15;4.40;;;10.10;99.90;;;;;;5062324;28;20208;-77
2022/02/24 08:12:52;;;;;;;5.00;4.20;;;10.70;99.90;;;;;;5052012;28;20731;-77
2022/02/24 08:15:21;;;;;;;7.10;4.25;;;11.20;99.90;;;;;;5054104;28;20224;-77
2022/02/24 08:17:48;;;;;;;5.50;3.90;;;11.60;99.90;;;;;;5053277;28;20208;-76
2022/02/24 08:20:16;;;;;;;5.15;3.58;;;11.60;99.90;;;;;;5053484;28;20236;-77
2022/02/24 08:22:47;;;;;;;4.60;3.65;;;12.40;99.90;;;;;;5055178;28;20208;-77
2022/02/24 08:25:17;;;;;;;4.68;4.10;;;13.30;99.90;;;;;;5056008;28;20315;-78
2022/02/24 08:27:45;;;;;;;4.57;3.72;;;13.90;99.50;;;;;;5054358;28;20210;-77
2022/02/24 08:30:13;;;;;;;3.40;3.10;;;14.30;99.10;;;;;;5054157;28;20232;-78
2022/02/24 08:32:41;;;;;;;4.00;3.30;;;15.20;98.10;;;;;;5056006;28;21317;-78
2022/02/24 08:35:11;;;;;;;3.20;2.90;;;15.70;96.30;;;;;;5055046;28;20483;-78
2022/02/24 08:37:38;;;;;;;3.30;3.00;;;15.70;96.30;;;;;;5056566;28;20459;-76
2022/02/24 08:40:07;;;;;;;4.07;3.33;;;15.60;95.80;;;;;;5056418;28;20458;-77
2022/02/24 08:42:35;;;;;;;3.90;3.43;;;15.30;96.30;;;;;;5055645;28;20467;-77
2022/02/24 08:45:02;;;;;;;4.00;3.00;;;15.10;96.40;;;;;;5054776;28;20522;-77
2022/02/24 08:47:28;;;;;;;4.33;3.60;;;15.20;96.10;;;;;;5056458;28;20459;-77
2022/02/24 08:49:55;;;;;;;4.90;3.30;;;14.70;95.80;;;;;;5054688;28;20463;-77
2022/02/24 08:52:22;;;;;;;3.70;3.37;;;14.90;96.00;;;;;;5056296;28;21157;-77
2022/02/24 08:54:48;;;;;;;3.50;3.20;;;15.20;95.60;;;;;;5054805;28;20491;-77
2022/02/24 08:57:16;;;;;;;3.23;2.93;;;15.40;95.60;;;;;;5056420;28;20813;-78
2022/02/24 08:59:44;;;;;;;3.60;3.23;;;15.80;95.10;;;;;;5050134;28;20460;-76
2022/02/24 09:02:10;;;;;;;3.60;3.00;;;16.10;94.00;;;;;;5050891;28;20467;-76
2022/02/24 09:04:37;;;;;;;3.60;2.80;;;16.40;94.30;;;;;;5049936;28;20586;-76
2022/02/24 09:07:04;;;;;;;7.93;3.17;;;17.30;93.70;;;;;;5051047;28;20466;-76
2022/02/24 09:09:31;;;;;;;3.53;2.80;;;17.80;92.20;;;;;;5050206;28;20506;-76
2022/02/24 09:11:58;;;;;;;2.83;2.53;;;17.90;92.40;;;;;;5051122;28;20470;-77
2022/02/24 09:14:28;;;;;;;3.03;2.73;;;18.50;92.00;;;;;;5049811;28;20466;-76
2022/02/24 09:16:54;;;;;;;3.30;2.90;;;19.00;90.40;;;;;;5053853;28;20467;-76
2022/02/24 09:19:22;;;;;;;4.47;2.50;;;18.70;90.80;;;;;;5054172;28;20459;-76
2022/02/24 09:21:49;;;;;;;3.67;2.73;;;17.60;91.20;;;;;;5051070;28;20455;-77
2022/02/24 09:24:19;;;;;;;3.53;2.70;;;16.10;92.30;;;;;;5057783;28;21002;-77
2022/02/24 09:26:47;;;;;;;3.50;2.53;;;14.60;93.60;;;;;;5062730;28;20964;-77
2022/02/24 09:29:15;;;;;;;3.33;2.67;;;13.70;95.00;;;;;;5061316;28;20459;-76
2022/02/24 09:31:43;;;;;;;4.53;2.97;;;13.20;95.40;;;;;;5054950;28;21160;-77
2022/02/24 09:34:11;;;;;;;3.20;2.70;;;13.00;95.80;;;;;;5054454;28;20799;-78
2022/02/24 09:36:38;;;;;;;4.57;2.40;;;12.70;96.30;;;;;;5055200;28;20574;-78
2022/02/24 09:39:05;;;;;;;2.80;2.45;;;12.40;96.60;;;;;;5057685;28;20205;-77
2022/02/24 09:41:32;;;;;;;3.17;2.63;;;12.70;96.60;;;;;;5056706;28;20242;-77
2022/02/24 09:43:59;;;;;;;5.05;3.10;;;13.20;96.10;;;;;;5058257;28;20225;-78
2022/02/24 09:46:27;;;;;;;2.70;2.50;;;13.80;95.40;;;;;;5059945;28;20208;-78
2022/02/24 09:48:57;;;;;;;3.58;2.58;;;13.90;95.30;;;;;;5061171;28;20205;-77
2022/02/24 09:51:24;;;;;;;2.63;2.07;;;14.10;95.50;;;;;;5061071;28;20201;-77
2022/02/24 09:53:51;;;;;;;6.47;2.47;;;14.10;95.40;;;;;;5066199;28;20460;-77
2022/02/24 09:56:19;;;;;;;3.45;2.05;;;14.10;94.60;;;;;;5087061;28;20478;-77
2022/02/24 09:58:47;;;;;;;4.70;2.17;;;13.90;94.90;;;;;;5067133;28;20201;-77
2022/02/24 10:01:14;;;;;;;2.87;1.87;;;13.70;95.30;;;;;;5064636;28;20466;-76
2022/02/24 10:03:45;;;;;;;3.30;2.20;;;14.20;95.40;;;;;;5068963;28;20494;-76
2022/02/24 10:06:15;;;;;;;3.57;1.97;;;15.60;94.30;;;;;;5082029;28;20482;-77
2022/02/24 10:08:43;;;;;;;2.40;1.73;;;16.80;93.20;;;;;;5071243;28;20455;-77
2022/02/24 10:11:18;;;;;;;4.37;2.47;;;18.20;91.60;;;;;;5068690;28;20459;-77
2022/02/24 10:13:57;;;;;;;4.60;3.10;;;19.20;90.40;;;;;;5067035;28;20459;-78
2022/02/24 10:16:24;;;;;;;2.47;1.70;;;20.30;89.80;;;;;;5058434;28;20463;-78
2022/02/24 10:18:51;;;;;;;3.10;2.00;;;19.80;89.70;;;;;;5057571;28;20463;-77
2022/02/24 10:21:20;;;;;;;2.27;2.00;;;19.30;88.00;;;;;;5056991;28;20463;-78
2022/02/24 10:23:48;;;;;;;3.63;1.93;;;18.10;90.40;;;;;;5056363;28;20540;-77
2022/02/24 10:26:16;;;;;;;3.40;2.57;;;18.20;89.90;;;;;;5056432;28;20483;-78
2022/02/24 10:28:46;;;;;;;2.83;1.83;;;18.10;89.70;;;;;;5053538;28;20813;-77
2022/02/24 10:31:15;;;;;;;3.53;2.13;;;18.90;89.30;;;;;;5053248;28;20566;-77
2022/02/24 10:33:45;;;;;;;3.93;2.43;;;19.40;89.30;;;;;;5062382;28;20459;-77
2022/02/24 10:36:17;;;;;;;3.10;2.13;;;19.70;87.20;;;;;;5071268;28;20474;-77
2022/02/24 10:38:58;;;;;;;2.03;1.73;;;19.60;87.20;;;;;;5070724;28;20462;-77
2022/02/24 10:41:28;;;;;;;3.60;2.20;;;18.60;89.10;;;;;;5072796;28;20470;-77
2022/02/24 10:44:15;;;;;;;3.10;2.20;;;18.00;89.40;;;;;;5079040;28;20567;-77
2022/02/24 10:46:44;;;;;;;3.83;2.17;;;18.20;88.30;;;;;;5075693;28;21401;-76
2022/02/24 10:49:13;;;;;;;4.80;2.10;;;18.10;88.00;;;;;;5081968;28;20458;-77
2022/02/24 10:51:41;;;;;;;3.20;2.40;;;17.10;90.00;;;;;;5072426;28;20454;-77
2022/02/24 10:54:11;;;;;;;3.00;2.07;;;16.60;90.40;;;;;;5072530;28;20494;-77
2022/02/24 10:56:40;;;;;;;2.30;2.10;;;16.80;90.80;;;;;;5071678;28;20458;-78
2022/02/24 10:59:08;;;;;;;3.50;2.10;;;17.60;90.80;;;;;;5071399;28;20993;-77
2022/02/24 11:01:36;;;;;;;2.83;2.17;;;18.00;88.90;;;;;;5073284;28;20466;-77
2022/02/24 11:04:05;;;;;;;2.70;2.33;;;17.30;90.20;;;;;;5073836;28;20493;-78
2022/02/24 11:06:34;;;;;;;2.87;2.57;;;17.20;90.40;;;;;;5075945;28;20455;-77
2022/02/24 11:09:02;;;;;;;3.17;1.93;;;17.40;90.10;;;;;;5076341;28;20461;-77
2022/02/24 11:11:31;;;;;;;1.80;1.70;;;17.20;90.60;;;;;;5059266;28;20980;-77
2022/02/24 11:13:59;;;;;;;3.13;2.17;;;18.10;90.20;;;;;;5051820;28;20842;-77
2022/02/24 11:16:27;;;;;;;2.60;2.20;;;18.40;90.00;;;;;;5052276;28;20463;-76
2022/02/24 11:18:57;;;;;;;2.37;1.70;;;18.80;89.80;;;;;;5053523;28;20463;-78
2022/02/24 11:21:25;;;;;;;2.40;1.90;;;19.20;88.50;;;;;;5052453;28;20513;-77
2022/02/24 11:23:53;;;;;;;2.40;1.60;;;19.40;86.40;;;;;;5051376;28;20463;-77
2022/02/24 11:26:31;;;;;;;3.27;1.83;;;18.70;85.70;;;;;;5052235;28;20533;-77
2022/02/24 11:29:04;;;;;;;2.00;1.77;;;17.90;87.30;;;;;;5052014;28;20563;-77
2022/02/24 11:31:38;;;;;;;3.93;1.70;;;18.30;86.90;;;;;;5051977;28;20550;-76
2022/02/24 11:34:05;;;;;;;4.53;1.93;;;18.30;86.50;;;;;;5050695;28;20456;-78
2022/02/24 11:36:39;;;;;;;2.47;2.00;;;17.20;87.60;;;;;;5052832;28;20463;-76
2022/02/24 11:39:08;;;;;;;4.33;1.43;;;16.60;89.30;;;;;;5052621;28;20458;-77
2022/02/24 11:41:35;;;;;;;3.40;1.73;;;16.70;89.20;;;;;;5052520;28;20483;-77
2022/02/24 11:44:04;;;;;;;2.23;1.70;;;17.40;87.60;;;;;;5051701;28;20459;-76
2022/02/24 11:46:30;;;;;;;4.73;1.77;;;18.20;85.40;;;;;;5051546;28;20463;-76
2022/02/24 11:48:57;;;;;;;2.53;1.57;;;17.80;84.80;;;;;;5053178;28;20455;-75
2022/02/24 11:51:24;;;;;;;2.50;1.50;;;17.30;86.40;;;;;;5052394;28;20833;-77
2022/02/24 11:53:53;;;;;;;3.20;1.90;;;16.60;85.70;;;;;;5050800;28;20470;-77
2022/02/24 11:56:21;;;;;;;3.57;1.80;;;15.50;87.00;;;;;;5050291;28;20515;-75
2022/02/24 11:58:53;;;;;;;5.10;2.07;;;15.00;88.80;;;;;;5049490;28;20463;-76
2022/02/24 12:01:31;;;;;;;2.30;1.53;;;14.90;89.80;;;;;;5051158;28;20495;-76
2022/02/24 12:04:16;;;;;;;2.07;1.50;;;15.00;89.20;;;;;;5050813;28;20990;-75
2022/02/24 12:06:56;;;;;;;2.43;1.67;;;15.00;89.30;;;;;;5071349;28;20984;-77
2022/02/24 12:09:34;;;;;;;5.80;1.87;;;15.00;88.80;;;;;;5071234;28;20549;-77
2022/02/24 12:12:03;;;;;;;2.60;1.90;;;14.60;88.70;;;;;;5059888;28;20478;-77
2022/02/24 12:14:50;;;;;;;2.00;1.80;;;14.40;89.90;;;;;;5049129;28;20558;-77
2022/02/24 12:17:24;;;;;;;2.00;1.53;;;14.20;89.20;;;;;;5050664;28;20517;-77
2022/02/24 12:19:54;;;;;;;3.40;1.80;;;14.00;89.80;;;;;;5050121;28;20460;-77
2022/02/24 12:22:27;;;;;;;2.00;1.80;;;14.00;90.00;;;;;;5052183;28;20482;-76
2022/02/24 12:25:03;;;;;;;2.13;1.50;;;14.30;89.90;;;;;;5067535;28;20581;-77
2022/02/24 12:27:35;;;;;;;2.43;1.63;;;14.30;89.70;;;;;;5071628;28;20469;-77
2022/02/24 12:30:14;;;;;;;2.53;1.60;;;14.20;90.00;;;;;;5071035;28;20465;-76
2022/02/24 12:32:45;;;;;;;3.03;1.90;;;13.90;90.20;;;;;;5069625;28;20232;-77
2022/02/24 12:35:15;;;;;;;4.20;2.40;;;13.90;90.40;;;;;;5069958;28;20479;-77
2022/02/24 12:37:42;;;;;;;1.90;1.53;;;13.90;90.50;;;;;;5068738;28;20462;-76
2022/02/24 12:40:15;;;;;;;3.53;1.63;;;13.80;90.70;;;;;;5069597;28;20470;-77
2022/02/24 12:42:41;;;;;;;2.15;1.90;;;13.70;90.70;;;;;;5069268;28;20465;-76
2022/02/24 12:45:08;;;;;;;3.70;1.52;;;13.50;90.70;;;;;;5068975;28;20232;-77
2022/02/24 12:47:36;;;;;;;2.40;1.80;;;13.20;91.00;;;;;;5068645;28;20675;-78
2022/02/24 12:50:05;;;;;;;2.67;1.70;;;13.10;91.00;;;;;;5068350;28;20454;-77
2022/02/24 12:52:32;;;;;;;3.08;1.70;;;13.10;91.70;;;;;;5068824;28;20499;-76
2022/02/24 12:55:00;;;;;;;2.90;1.90;;;13.20;91.10;;;;;;5070727;28;20620;-78
2022/02/24 12:57:27;;;;;;;2.27;2.03;;;13.10;91.20;;;;;;5073322;28;20492;-78
2022/02/24 12:59:55;;;;;;;5.18;1.65;;;13.00;91.30;;;;;;5056890;28;21589;-77
2022/02/24 13:02:22;;;;;;;2.87;1.70;;;13.10;91.40;;;;;;5052109;28;20209;-78